Time;durP1;ratioP1;P1;durP2;ratioP2;P2;SDS_P1;SDS_P2;PMS_P1;PMS_P2;Temp;Humidity;BMP_temperature;BMP_pressure;BME280_temperature;BME280_humidity;BME280_pressure;Samples;Min_cycle;Max_cycle;Signal;HPM_P1;HPM_P2
2022/02/24 00:00:58;;;;;;;12.70;6.75;;;5.10;99.90;;;;;;5096756;28;20212;-92
2022/02/24 00:03:23;;;;;;;12.37;6.60;;;5.10;99.90;;;;;;5096380;28;20568;-91
2022/02/24 00:05:53;;;;;;;12.53;6.70;;;5.10;99.90;;;;;;5080116;28;20245;-92
2022/02/24 00:08:18;;;;;;;10.55;6.80;;;5.10;99.90;;;;;;5080682;28;20212;-92
2022/02/24 00:10:44;;;;;;;12.87;7.20;;;5.10;99.90;;;;;;5096982;28;20180;-88
2022/02/24 00:13:10;;;;;;;8.70;6.97;;;5.10;99.90;;;;;;5097735;28;20285;-93
2022/02/24 00:15:36;;;;;;;11.98;6.93;;;5.10;99.90;;;;;;5097969;28;20191;-92
2022/02/24 00:18:01;;;;;;;11.63;8.17;;;5.10;99.90;;;;;;5084088;28;20192;-91
2022/02/24 00:20:27;;;;;;;15.53;8.20;;;5.00;99.90;;;;;;5096596;28;20226;-90
2022/02/24 00:22:53;;;;;;;14.90;6.93;;;5.00;99.90;;;;;;5096415;28;20603;-92
2022/02/24 00:25:18;;;;;;;9.00;7.07;;;5.00;99.90;;;;;;5096438;28;20195;-91
2022/02/24 00:27:45;;;;;;;12.37;7.40;;;5.00;99.90;;;;;;5077769;28;20205;-92
2022/02/24 00:30:11;;;;;;;15.18;8.13;;;5.00;99.90;;;;;;5094787;28;20173;-87
2022/02/24 00:32:37;;;;;;;14.73;8.50;;;5.00;99.90;;;;;;5094931;28;20211;-89
2022/02/24 00:35:04;;;;;;;12.90;7.57;;;5.00;99.90;;;;;;5098288;28;20463;-87
2022/02/24 00:37:30;;;;;;;15.45;7.25;;;4.90;99.90;;;;;;5096959;28;20261;-93
2022/02/24 00:39:56;;;;;;;12.40;7.53;;;4.90;99.90;;;;;;5096382;28;20165;-87
2022/02/24 00:42:21;;;;;;;13.50;7.17;;;4.90;99.90;;;;;;5096953;28;20224;-93
2022/02/24 00:44:47;;;;;;;15.03;9.23;;;4.90;99.90;;;;;;5096576;28;20321;-88
2022/02/24 00:47:13;;;;;;;23.77;10.20;;;4.90;99.90;;;;;;5096907;28;20451;-91
2022/02/24 00:49:38;;;;;;;12.40;8.53;;;4.90;99.90;;;;;;5096359;28;20227;-87
2022/02/24 00:52:04;;;;;;;14.30;7.63;;;4.90;99.90;;;;;;5099852;28;20280;-89
2022/02/24 00:54:30;;;;;;;12.13;7.57;;;4.90;99.90;;;;;;5076945;28;20191;-88
2022/02/24 00:56:56;;;;;;;13.20;7.93;;;4.90;99.90;;;;;;5079470;28;20778;-88
2022/02/24 00:59:22;;;;;;;11.50;6.70;;;4.90;99.90;;;;;;5077910;28;20425;-91
2022/02/24 01:01:48;;;;;;;15.17;7.40;;;4.80;99.90;;;;;;5077090;28;20473;-92
2022/02/24 01:04:14;;;;;;;10.35;6.95;;;4.80;99.90;;;;;;5078202;28;20176;-88
2022/02/24 01:06:40;;;;;;;13.25;8.07;;;4.80;99.90;;;;;;5077515;28;20203;-88
2022/02/24 01:09:06;;;;;;;16.27;8.50;;;4.70;99.90;;;;;;5079233;28;20207;-93
2022/02/24 01:11:32;;;;;;;14.53;9.90;;;4.70;99.90;;;;;;5096451;28;20172;-92
2022/02/24 01:13:57;;;;;;;13.63;8.47;;;4.70;99.90;;;;;;5087446;28;20473;-93
2022/02/24 01:16:23;;;;;;;13.10;7.20;;;4.60;99.90;;;;;;5097629;28;20306;-90
2022/02/24 01:18:49;;;;;;;13.97;8.37;;;4.60;99.90;;;;;;5107900;28;20212;-88
2022/02/24 01:21:14;;;;;;;11.57;7.90;;;4.60;99.90;;;;;;5096533;28;20289;-92
2022/02/24 01:23:40;;;;;;;14.60;7.80;;;4.60;99.90;;;;;;5094176;28;20204;-88
2022/02/24 01:26:06;;;;;;;13.13;8.73;;;4.60;99.90;;;;;;5094025;28;20202;-91
2022/02/24 01:28:32;;;;;;;15.83;9.67;;;4.60;99.90;;;;;;5094021;28;20204;-88
2022/02/24 01:30:57;;;;;;;12.60;8.60;;;4.50;99.90;;;;;;5095838;28;20187;-87
2022/02/24 01:33:23;;;;;;;13.67;7.93;;;4.50;99.90;;;;;;5096065;28;20200;-91
2022/02/24 01:35:49;;;;;;;11.70;7.70;;;4.50;99.90;;;;;;5095142;28;20226;-88
2022/02/24 01:38:14;;;;;;;14.00;9.30;;;4.50;99.90;;;;;;5094897;28;20203;-88
2022/02/24 01:40:40;;;;;;;14.60;9.70;;;4.50;99.90;;;;;;5096947;28;20212;-90
2022/02/24 01:43:06;;;;;;;15.47;9.43;;;4.50;99.90;;;;;;5094844;28;20215;-88
2022/02/24 01:45:31;;;;;;;25.07;11.43;;;4.40;99.90;;;;;;5094546;28;20195;-91
2022/02/24 01:47:58;;;;;;;21.90;10.40;;;4.40;99.90;;;;;;5097937;28;20227;-88
2022/02/24 01:50:26;;;;;;;16.02;9.43;;;4.40;99.90;;;;;;5097423;28;20699;-92
2022/02/24 01:52:52;;;;;;;13.25;10.25;;;4.40;99.90;;;;;;5095020;28;20287;-92
2022/02/24 01:55:18;;;;;;;15.30;9.88;;;4.40;99.90;;;;;;5093920;28;20180;-91
2022/02/24 01:57:43;;;;;;;13.67;9.40;;;4.40;99.90;;;;;;5097382;28;20204;-88
2022/02/24 02:00:10;;;;;;;15.67;9.23;;;4.40;99.90;;;;;;5110486;28;20211;-90
2022/02/24 02:02:35;;;;;;;17.27;9.45;;;4.30;99.90;;;;;;5097741;28;20196;-93
2022/02/24 02:05:03;;;;;;;15.93;10.20;;;4.30;99.90;;;;;;5115150;28;20195;-91
2022/02/24 02:07:29;;;;;;;17.88;10.80;;;4.30;99.90;;;;;;5098736;28;20744;-92
2022/02/24 02:09:55;;;;;;;15.00;10.20;;;4.30;99.90;;;;;;5100181;28;20176;-88
2022/02/24 02:12:21;;;;;;;13.68;9.25;;;4.20;99.90;;;;;;5098441;28;20223;-88
2022/02/24 02:14:47;;;;;;;20.45;10.38;;;4.20;99.90;;;;;;5101232;28;20225;-89
2022/02/24 02:17:13;;;;;;;19.03;10.40;;;4.10;99.90;;;;;;5100307;28;20684;-93
2022/02/24 02:19:39;;;;;;;14.13;9.93;;;4.10;99.90;;;;;;5099930;28;20412;-88
2022/02/24 02:22:04;;;;;;;16.67;9.90;;;4.10;99.90;;;;;;5099312;28;20265;-94
2022/02/24 02:24:30;;;;;;;16.63;9.30;;;4.00;99.90;;;;;;5099869;28;20392;-89
2022/02/24 02:26:56;;;;;;;14.47;9.80;;;3.90;99.90;;;;;;5107592;28;20401;-93
2022/02/24 02:29:22;;;;;;;14.80;9.60;;;3.90;99.90;;;;;;5098432;28;20212;-89
2022/02/24 02:31:48;;;;;;;14.20;9.37;;;3.80;99.90;;;;;;5097921;28;20424;-94
2022/02/24 02:34:16;;;;;;;11.18;8.75;;;3.80;99.90;;;;;;5100302;28;20563;-92
2022/02/24 02:36:45;;;;;;;15.13;9.70;;;3.70;99.90;;;;;;5097165;28;20192;-91
2022/02/24 02:39:13;;;;;;;18.15;9.63;;;3.70;99.90;;;;;;5096983;28;20621;-92
2022/02/24 02:41:40;;;;;;;14.88;9.57;;;3.70;99.90;;;;;;5096902;28;20239;-87
2022/02/24 02:44:07;;;;;;;15.90;9.65;;;3.60;99.90;;;;;;5098493;28;20557;-88
2022/02/24 02:46:33;;;;;;;12.80;9.20;;;3.60;99.90;;;;;;5098994;28;20212;-88
2022/02/24 02:48:59;;;;;;;15.02;9.13;;;3.50;99.90;;;;;;5099603;28;20325;-89
2022/02/24 02:51:25;;;;;;;19.10;10.90;;;3.50;99.90;;;;;;5102304;28;20173;-88
2022/02/24 02:53:51;;;;;;;17.08;10.30;;;3.40;99.90;;;;;;5099078;28;20506;-92
2022/02/24 02:56:17;;;;;;;14.77;10.00;;;3.40;99.90;;;;;;5097457;28;20614;-87
2022/02/24 02:58:43;;;;;;;14.40;10.80;;;3.30;99.90;;;;;;5098785;28;20436;-88
2022/02/24 03:01:08;;;;;;;14.07;10.57;;;3.30;99.90;;;;;;5100402;28;20208;-91
2022/02/24 03:03:34;;;;;;;16.43;10.10;;;3.20;99.90;;;;;;5104803;28;20210;-92
2022/02/24 03:06:00;;;;;;;15.40;10.00;;;3.20;99.90;;;;;;5103708;28;20486;-87
2022/02/24 03:08:26;;;;;;;14.95;10.57;;;3.20;99.90;;;;;;5097349;28;20196;-93
2022/02/24 03:10:52;;;;;;;18.50;12.17;;;3.10;99.90;;;;;;5096410;28;20198;-88
2022/02/24 03:13:19;;;;;;;18.47;10.27;;;3.10;99.90;;;;;;5096189;28;20278;-87
2022/02/24 03:15:45;;;;;;;19.17;11.38;;;3.00;99.90;;;;;;5079541;28;20180;-92
2022/02/24 03:18:11;;;;;;;21.33;12.90;;;3.00;99.90;;;;;;5079443;28;20197;-88
2022/02/24 03:20:36;;;;;;;29.10;14.55;;;2.90;99.90;;;;;;5079472;28;20443;-92
2022/02/24 03:23:05;;;;;;;23.43;13.50;;;2.90;99.90;;;;;;5096812;28;20211;-92
2022/02/24 03:25:31;;;;;;;23.02;14.18;;;2.90;99.90;;;;;;5082087;28;20183;-88
2022/02/24 03:27:58;;;;;;;22.58;12.52;;;2.80;99.90;;;;;;5079820;28;20545;-91
2022/02/24 03:30:25;;;;;;;22.48;14.00;;;2.80;99.90;;;;;;5097764;28;20161;-88
2022/02/24 03:32:51;;;;;;;23.38;15.02;;;2.70;99.90;;;;;;5080333;28;20204;-87
2022/02/24 03:35:19;;;;;;;26.23;16.20;;;2.70;99.90;;;;;;5098695;28;20203;-87
2022/02/24 03:37:45;;;;;;;27.10;15.55;;;2.60;99.90;;;;;;5085688;28;20616;-87
2022/02/24 03:40:12;;;;;;;30.23;15.30;;;2.60;99.90;;;;;;5078825;28;20208;-90
2022/02/24 03:42:38;;;;;;;38.92;22.70;;;2.50;99.90;;;;;;5097285;28;20457;-92
2022/02/24 03:45:05;;;;;;;42.35;21.63;;;2.50;99.90;;;;;;5097473;28;20577;-88
2022/02/24 03:47:31;;;;;;;49.75;26.85;;;2.50;99.90;;;;;;5081773;28;20600;-88
2022/02/24 03:49:57;;;;;;;59.00;29.80;;;2.40;99.90;;;;;;5078395;28;20215;-88
2022/02/24 03:52:23;;;;;;;78.00;34.47;;;2.40;99.90;;;;;;5096475;28;20230;-92
2022/02/24 03:54:49;;;;;;;54.30;27.80;;;2.40;99.90;;;;;;5096328;28;20244;-92
2022/02/24 03:57:15;;;;;;;45.28;21.52;;;2.30;99.90;;;;;;5096324;28;20420;-91
2022/02/24 03:59:42;;;;;;;44.85;22.13;;;2.30;99.90;;;;;;5097090;28;20164;-87
2022/02/24 04:02:08;;;;;;;48.83;25.25;;;2.30;99.90;;;;;;5097402;28;20213;-88
2022/02/24 04:04:35;;;;;;;54.38;28.50;;;2.30;99.90;;;;;;5081477;28;20192;-89
2022/02/24 04:07:02;;;;;;;50.80;27.98;;;2.20;99.90;;;;;;5086980;28;20192;-92
2022/02/24 04:09:28;;;;;;;76.40;33.92;;;2.20;99.90;;;;;;5080671;28;20192;-91
2022/02/24 04:11:54;;;;;;;72.82;34.47;;;2.20;99.90;;;;;;5096505;28;20169;-93
2022/02/24 04:14:21;;;;;;;57.23;29.67;;;2.20;99.90;;;;;;5096145;28;20228;-92
2022/02/24 04:16:47;;;;;;;74.13;34.28;;;2.10;99.90;;;;;;5078194;28;20422;-92
2022/02/24 04:19:13;;;;;;;73.20;34.63;;;2.10;99.90;;;;;;5078750;28;20189;-88
2022/02/24 04:21:38;;;;;;;63.00;33.30;;;2.10;99.90;;;;;;5078510;28;20700;-89
2022/02/24 04:24:05;;;;;;;69.37;33.13;;;2.10;99.90;;;;;;5079787;28;20257;-92
2022/02/24 04:26:32;;;;;;;53.78;29.25;;;2.10;99.90;;;;;;5099875;28;20172;-91
2022/02/24 04:28:58;;;;;;;58.47;29.80;;;2.10;99.90;;;;;;5097805;28;20315;-87
2022/02/24 04:31:24;;;;;;;64.85;31.33;;;2.20;99.90;;;;;;5078675;28;20229;-91
2022/02/24 04:33:50;;;;;;;62.00;32.30;;;2.20;99.90;;;;;;5079197;28;20708;-92
2022/02/24 04:36:15;;;;;;;55.97;27.67;;;2.20;99.90;;;;;;5099574;28;20398;-91
2022/02/24 04:38:41;;;;;;;33.73;21.80;;;2.20;99.90;;;;;;5095738;28;20203;-89
2022/02/24 04:41:08;;;;;;;34.70;22.77;;;2.30;99.90;;;;;;5077710;28;20681;-92
2022/02/24 04:43:33;;;;;;;37.58;22.23;;;2.20;99.90;;;;;;5096120;28;20196;-88
2022/02/24 04:46:00;;;;;;;37.10;19.30;;;2.20;99.90;;;;;;5096125;28;20178;-90
2022/02/24 04:48:26;;;;;;;33.17;17.83;;;2.20;99.90;;;;;;5080162;28;20449;-87
2022/02/24 04:50:52;;;;;;;24.85;16.33;;;2.20;99.90;;;;;;5096083;28;20229;-87
2022/02/24 04:53:18;;;;;;;28.13;16.03;;;2.20;99.90;;;;;;5096348;28;20201;-87
2022/02/24 04:55:44;;;;;;;25.35;15.55;;;2.20;99.90;;;;;;5097389;28;20172;-92
2022/02/24 04:58:09;;;;;;;35.60;18.43;;;2.30;99.90;;;;;;5096705;28;20665;-89
2022/02/24 05:00:36;;;;;;;25.17;17.27;;;2.30;99.90;;;;;;5078089;28;20620;-91
2022/02/24 05:03:02;;;;;;;31.55;16.98;;;2.30;99.90;;;;;;5083488;28;20208;-93
2022/02/24 05:05:27;;;;;;;26.80;15.90;;;2.30;99.90;;;;;;5094225;28;20218;-88
2022/02/24 05:07:53;;;;;;;25.00;16.40;;;2.30;99.90;;;;;;5096409;28;20408;-87
2022/02/24 05:10:19;;;;;;;42.50;27.57;;;2.40;99.90;;;;;;5079734;28;20419;-92
2022/02/24 05:12:45;;;;;;;21.75;15.32;;;2.40;99.90;;;;;;5077421;28;20227;-92
2022/02/24 05:15:11;;;;;;;27.77;16.55;;;2.40;99.90;;;;;;5077069;28;20184;-92
2022/02/24 05:17:40;;;;;;;21.52;13.25;;;2.40;99.90;;;;;;5077589;28;20214;-93
2022/02/24 05:20:08;;;;;;;24.35;12.73;;;2.40;99.90;;;;;;5094541;28;20186;-88
2022/02/24 05:22:34;;;;;;;22.27;12.88;;;2.40;99.90;;;;;;5095998;28;20605;-92
2022/02/24 05:25:00;;;;;;;18.92;11.48;;;2.40;99.90;;;;;;5078270;28;20195;-87
2022/02/24 05:27:26;;;;;;;24.57;13.30;;;2.40;99.90;;;;;;5082673;28;20205;-93
2022/02/24 05:29:52;;;;;;;19.43;13.00;;;2.40;99.90;;;;;;5095300;28;20910;-87
2022/02/24 05:32:17;;;;;;;16.83;12.30;;;2.50;99.90;;;;;;5095815;28;20196;-88
2022/02/24 05:34:43;;;;;;;19.63;11.53;;;2.50;99.90;;;;;;5096028;28;20165;-91
2022/02/24 05:37:09;;;;;;;20.90;12.20;;;2.60;99.90;;;;;;5102088;28;20188;-93
2022/02/24 05:39:34;;;;;;;22.40;11.23;;;2.60;99.90;;;;;;5086152;28;20184;-92
2022/02/24 05:42:00;;;;;;;18.50;11.97;;;2.70;99.90;;;;;;5094164;28;20684;-88
2022/02/24 05:44:27;;;;;;;20.67;11.80;;;2.70;99.90;;;;;;5076183;28;20313;-89
2022/02/24 05:46:53;;;;;;;20.20;12.90;;;2.80;99.90;;;;;;5079581;28;20470;-88
2022/02/24 05:49:19;;;;;;;25.03;16.03;;;2.90;99.90;;;;;;5077613;28;20217;-92
2022/02/24 05:51:45;;;;;;;26.47;15.13;;;2.90;99.90;;;;;;5079266;28;20403;-86
2022/02/24 05:54:11;;;;;;;26.30;15.33;;;2.90;99.90;;;;;;5076638;28;20176;-93
2022/02/24 05:56:37;;;;;;;24.05;16.00;;;2.80;99.90;;;;;;5094280;28;20172;-88
2022/02/24 05:59:04;;;;;;;28.85;16.75;;;2.80;99.90;;;;;;5094426;28;20200;-89
2022/02/24 06:01:29;;;;;;;21.83;14.82;;;2.80;99.90;;;;;;5076448;28;20212;-87
2022/02/24 06:03:55;;;;;;;27.53;16.80;;;2.70;99.90;;;;;;5094648;28;20200;-88
2022/02/24 06:06:21;;;;;;;30.23;17.50;;;2.70;99.90;;;;;;5094840;28;20188;-88
2022/02/24 06:08:47;;;;;;;28.20;18.47;;;2.60;99.90;;;;;;5107696;28;20208;-87
2022/02/24 06:11:12;;;;;;;31.03;20.33;;;2.60;99.90;;;;;;5075115;28;20430;-87
2022/02/24 06:13:38;;;;;;;35.70;22.23;;;2.60;99.90;;;;;;5079943;28;20626;-92
2022/02/24 06:16:04;;;;;;;36.93;22.23;;;2.50;99.90;;;;;;5092601;28;20173;-90
2022/02/24 06:18:30;;;;;;;33.90;22.20;;;2.40;99.90;;;;;;5093561;28;20291;-88
2022/02/24 06:20:57;;;;;;;36.30;21.60;;;2.30;99.90;;;;;;5092573;28;20279;-87
2022/02/24 06:23:23;;;;;;;38.85;22.55;;;2.20;99.90;;;;;;5090755;28;20211;-91
2022/02/24 06:25:48;;;;;;;37.33;22.20;;;2.20;99.90;;;;;;5092151;28;20511;-88
2022/02/24 06:28:14;;;;;;;36.27;23.47;;;2.20;99.90;;;;;;5094424;28;20208;-87
2022/02/24 06:30:40;;;;;;;40.87;26.40;;;2.10;99.90;;;;;;5092451;28;20168;-86
2022/02/24 06:33:06;;;;;;;43.10;28.70;;;2.10;99.90;;;;;;5091848;28;20345;-92
2022/02/24 06:35:32;;;;;;;39.05;25.90;;;2.20;99.90;;;;;;5092190;28;20180;-91
2022/02/24 06:37:59;;;;;;;35.87;26.83;;;2.10;99.90;;;;;;5091650;28;20649;-92
2022/02/24 06:40:25;;;;;;;35.60;24.05;;;2.20;99.90;;;;;;5090302;28;20711;-88
2022/02/24 06:42:50;;;;;;;30.17;24.37;;;2.20;99.90;;;;;;5092905;28;20204;-87
2022/02/24 06:45:16;;;;;;;37.67;25.10;;;2.30;99.90;;;;;;5091286;28;20183;-91
2022/02/24 06:47:42;;;;;;;38.63;25.03;;;2.40;99.90;;;;;;5101532;28;20654;-91
2022/02/24 06:50:11;;;;;;;37.93;24.93;;;2.50;99.90;;;;;;5098776;28;20884;-91
2022/02/24 06:52:38;;;;;;;38.75;25.75;;;2.50;99.90;;;;;;5109488;28;20200;-92
2022/02/24 06:55:06;;;;;;;39.47;27.33;;;2.70;99.90;;;;;;5095127;28;20259;-92
2022/02/24 06:57:54;;;;;;;32.08;20.90;;;2.70;99.90;;;;;;5093898;28;20665;-89
2022/02/24 07:00:22;;;;;;;39.65;25.17;;;2.90;99.90;;;;;;5095768;28;20165;-88
2022/02/24 07:02:47;;;;;;;29.33;20.83;;;3.00;99.90;;;;;;5095953;28;20200;-92
2022/02/24 07:05:14;;;;;;;31.27;18.30;;;3.10;99.90;;;;;;5096507;28;20188;-92
2022/02/24 07:07:39;;;;;;;25.75;18.63;;;3.30;99.90;;;;;;5096031;28;20246;-88
2022/02/24 07:10:12;;;;;;;28.00;17.97;;;3.40;99.90;;;;;;5095839;28;20172;-87
2022/02/24 07:12:38;;;;;;;29.27;19.40;;;3.60;99.90;;;;;;5090739;28;20245;-92
2022/02/24 07:15:05;;;;;;;21.85;15.25;;;3.70;99.90;;;;;;5073480;28;20650;-89
2022/02/24 07:17:31;;;;;;;21.60;14.48;;;3.90;99.90;;;;;;5095789;28;20204;-89
2022/02/24 07:19:57;;;;;;;25.00;13.52;;;4.00;99.90;;;;;;5092265;28;20173;-89
2022/02/24 07:22:23;;;;;;;20.63;13.00;;;4.20;99.90;;;;;;5097532;28;20745;-93
2022/02/24 07:24:49;;;;;;;25.20;14.70;;;4.30;99.90;;;;;;5072517;28;20183;-88
2022/02/24 07:27:14;;;;;;;22.30;12.90;;;4.50;99.90;;;;;;5073182;28;20204;-89
2022/02/24 07:29:40;;;;;;;20.77;12.30;;;4.60;99.90;;;;;;5086080;28;20185;-88
2022/02/24 07:32:06;;;;;;;20.83;12.80;;;4.80;99.90;;;;;;5076309;28;20253;-91
2022/02/24 07:34:32;;;;;;;18.92;12.60;;;5.00;99.90;;;;;;5074697;28;20207;-86
2022/02/24 07:36:58;;;;;;;25.33;11.80;;;5.10;99.90;;;;;;5087786;28;20597;-86
2022/02/24 07:39:24;;;;;;;16.42;11.05;;;5.30;99.90;;;;;;5090874;28;20189;-89
2022/02/24 07:41:50;;;;;;;14.90;11.70;;;5.50;99.90;;;;;;5077790;28;20307;-87
2022/02/24 07:44:15;;;;;;;16.23;12.63;;;5.50;99.90;;;;;;5094697;28;20245;-90
2022/02/24 07:46:42;;;;;;;21.47;13.17;;;5.70;99.90;;;;;;5094853;28;20180;-93
2022/02/24 07:49:07;;;;;;;20.73;15.23;;;5.90;99.90;;;;;;5096380;28;20440;-88
2022/02/24 07:51:33;;;;;;;24.23;15.17;;;6.00;99.90;;;;;;5094859;28;20292;-88
2022/02/24 07:53:59;;;;;;;20.80;14.32;;;6.20;99.90;;;;;;5084563;28;20200;-88
2022/02/24 07:56:25;;;;;;;27.92;16.70;;;6.40;99.90;;;;;;5092998;28;20205;-93
2022/02/24 07:58:51;;;;;;;20.93;14.30;;;6.70;99.90;;;;;;5078178;28;20239;-87
2022/02/24 08:01:17;;;;;;;24.70;13.63;;;6.90;99.90;;;;;;5093409;28;20681;-88
2022/02/24 08:03:43;;;;;;;17.45;12.38;;;7.20;99.90;;;;;;5082301;28;20551;-93
2022/02/24 08:06:09;;;;;;;16.87;12.40;;;7.60;99.90;;;;;;5073021;28;20241;-88
2022/02/24 08:08:34;;;;;;;13.73;11.13;;;7.90;99.90;;;;;;5078259;28;20856;-93
2022/02/24 08:11:00;;;;;;;18.80;11.60;;;8.30;99.90;;;;;;5077197;28;20176;-88
2022/02/24 08:13:28;;;;;;;19.13;10.93;;;8.90;99.90;;;;;;5093531;28;20244;-93
2022/02/24 08:15:54;;;;;;;14.55;11.77;;;9.70;99.90;;;;;;5074726;28;20395;-88
2022/02/24 08:18:19;;;;;;;15.43;11.00;;;10.40;99.90;;;;;;5074648;28;20284;-92
2022/02/24 08:20:45;;;;;;;22.97;12.73;;;11.40;99.90;;;;;;5073985;28;20240;-88
2022/02/24 08:23:11;;;;;;;16.77;13.23;;;12.40;99.90;;;;;;5068610;28;20197;-88
2022/02/24 08:25:38;;;;;;;21.83;13.40;;;13.40;99.90;;;;;;5074787;28;20176;-88
2022/02/24 08:28:04;;;;;;;13.07;9.93;;;14.50;99.20;;;;;;5085393;28;20237;-87
2022/02/24 08:30:29;;;;;;;15.07;9.77;;;15.40;95.20;;;;;;5075699;28;20181;-87
2022/02/24 08:32:55;;;;;;;15.13;10.60;;;16.20;92.00;;;;;;5073341;28;21056;-88
2022/02/24 08:35:23;;;;;;;13.97;9.77;;;16.90;90.70;;;;;;5090405;28;20256;-88
2022/02/24 08:37:49;;;;;;;13.90;9.07;;;17.50;87.00;;;;;;5091279;28;20613;-89
2022/02/24 08:40:17;;;;;;;14.70;10.37;;;18.20;83.40;;;;;;5073169;28;20482;-92
2022/02/24 08:42:44;;;;;;;16.97;10.03;;;18.50;80.10;;;;;;5092839;28;20244;-89
2022/02/24 08:45:12;;;;;;;18.20;13.10;;;19.00;79.40;;;;;;5090314;28;20874;-89
2022/02/24 08:47:39;;;;;;;13.70;11.17;;;19.40;77.10;;;;;;5074489;28;20973;-92
2022/02/24 08:50:07;;;;;;;13.57;11.53;;;19.70;76.10;;;;;;5089895;28;20428;-93
2022/02/24 08:52:32;;;;;;;12.77;10.93;;;20.00;72.10;;;;;;5091235;28;20819;-87
2022/02/24 08:54:58;;;;;;;13.63;12.23;;;20.10;71.70;;;;;;5095596;28;20421;-89
2022/02/24 08:57:24;;;;;;;12.87;10.03;;;20.30;71.10;;;;;;5074587;28;20235;-93
2022/02/24 08:59:51;;;;;;;14.60;12.17;;;20.40;70.20;;;;;;5075683;28;20185;-88
2022/02/24 09:02:18;;;;;;;9.57;7.90;;;20.70;68.80;;;;;;5093627;28;20277;-88
2022/02/24 09:04:44;;;;;;;10.53;8.73;;;20.90;68.30;;;;;;5074842;28;20478;-88
2022/02/24 09:07:09;;;;;;;11.10;8.13;;;21.10;66.70;;;;;;5088518;28;20454;-89
2022/02/24 09:09:35;;;;;;;9.67;7.47;;;21.20;66.40;;;;;;5071262;28;20543;-93
2022/02/24 09:12:01;;;;;;;10.23;7.33;;;21.30;65.50;;;;;;5071775;28;20328;-92
2022/02/24 09:14:28;;;;;;;12.20;11.10;;;21.40;65.00;;;;;;5087015;28;20231;-92
2022/02/24 09:16:55;;;;;;;9.80;7.70;;;21.50;65.30;;;;;;5091675;28;20955;-89
2022/02/24 09:19:21;;;;;;;11.67;8.77;;;21.70;63.80;;;;;;5091346;28;20458;-87
2022/02/24 09:21:47;;;;;;;13.97;10.97;;;22.00;64.10;;;;;;5086847;28;20472;-92
2022/02/24 09:24:13;;;;;;;12.93;10.10;;;22.40;62.90;;;;;;5098398;28;20755;-92
2022/02/24 09:26:39;;;;;;;11.00;8.30;;;22.80;62.10;;;;;;5090089;28;20436;-91
2022/02/24 09:29:06;;;;;;;11.60;7.77;;;23.00;60.90;;;;;;5092196;28;20495;-91
2022/02/24 09:31:34;;;;;;;10.90;7.37;;;23.20;60.60;;;;;;5072189;28;20436;-88
2022/02/24 09:34:00;;;;;;;11.83;9.40;;;23.30;59.70;;;;;;5083195;28;20459;-88
2022/02/24 09:36:25;;;;;;;11.10;7.30;;;23.10;59.80;;;;;;5092292;28;20429;-89
2022/02/24 09:38:51;;;;;;;8.30;7.10;;;22.90;60.00;;;;;;5097521;28;20463;-88
2022/02/24 09:41:18;;;;;;;8.73;7.90;;;22.60;61.10;;;;;;5090663;28;20230;-88
2022/02/24 09:43:45;;;;;;;11.40;9.87;;;22.20;61.90;;;;;;5087811;28;20207;-88
2022/02/24 09:46:12;;;;;;;8.70;7.90;;;21.70;62.00;;;;;;5091816;28;20909;-88
2022/02/24 09:48:42;;;;;;;11.07;5.70;;;21.40;62.40;;;;;;5108881;28;20455;-87
2022/02/24 09:51:10;;;;;;;9.70;7.30;;;21.00;62.00;;;;;;5094260;28;20435;-89
2022/02/24 09:53:37;;;;;;;7.83;6.23;;;20.70;62.90;;;;;;5092101;28;20485;-88
2022/02/24 09:56:04;;;;;;;9.83;6.90;;;20.50;62.70;;;;;;5094773;28;20442;-88
2022/02/24 09:58:31;;;;;;;9.63;6.03;;;20.30;62.70;;;;;;5087960;28;20824;-88
2022/02/24 10:01:02;;;;;;;6.93;6.23;;;20.10;63.50;;;;;;5088463;28;20952;-88
2022/02/24 10:03:43;;;;;;;38.73;34.33;;;19.80;64.70;;;;;;5122312;28;20462;-90
2022/02/24 10:06:10;;;;;;;9.90;8.30;;;19.80;64.20;;;;;;5090300;28;20848;-89
2022/02/24 10:08:47;;;;;;;10.60;6.83;;;20.00;63.80;;;;;;5098356;28;20476;-88
2022/02/24 10:11:23;;;;;;;9.00;6.37;;;19.90;64.20;;;;;;5090026;28;20801;-88
2022/02/24 10:13:59;;;;;;;8.80;6.77;;;19.60;64.10;;;;;;5082593;28;20515;-93
2022/02/24 10:16:25;;;;;;;10.27;6.20;;;19.40;65.00;;;;;;5069303;28;20444;-88
2022/02/24 10:18:51;;;;;;;10.73;6.33;;;19.20;64.40;;;;;;5071447;28;20498;-88
2022/02/24 10:21:20;;;;;;;13.07;7.53;;;18.80;64.60;;;;;;5079264;28;20843;-90
2022/02/24 10:23:48;;;;;;;7.63;5.27;;;18.40;65.40;;;;;;5073568;28;20202;-92
2022/02/24 10:26:17;;;;;;;7.47;5.00;;;18.00;67.30;;;;;;5076041;28;20464;-93
2022/02/24 10:28:48;;;;;;;7.50;5.10;;;17.50;66.00;;;;;;5094613;28;20448;-93
2022/02/24 10:31:19;;;;;;;7.67;5.17;;;17.20;66.50;;;;;;5077981;28;20429;-92
2022/02/24 10:34:04;;;;;;;6.20;4.73;;;16.90;66.50;;;;;;5078098;28;20449;-94
2022/02/24 10:36:33;;;;;;;8.90;5.90;;;16.60;66.60;;;;;;5096353;28;20464;-89
2022/02/24 10:39:11;;;;;;;9.37;4.97;;;16.10;67.90;;;;;;5070606;28;20463;-88
2022/02/24 10:41:45;;;;;;;9.80;4.87;;;15.90;68.10;;;;;;5107612;28;20496;-88
2022/02/24 10:44:19;;;;;;;9.20;4.50;;;15.70;67.80;;;;;;5072811;28;20427;-89
2022/02/24 10:47:10;;;;;;;7.20;3.93;;;15.50;67.70;;;;;;5090471;28;20444;-88
2022/02/24 10:49:42;;;;;;;6.33;4.50;;;15.40;67.50;;;;;;5102692;28;20428;-88
2022/02/24 10:52:17;;;;;;;8.40;5.13;;;15.10;68.30;;;;;;5087149;28;20487;-87
2022/02/24 10:54:57;;;;;;;6.13;4.10;;;15.00;69.60;;;;;;5082357;28;20972;-88
2022/02/24 10:57:25;;;;;;;6.23;4.83;;;14.90;69.90;;;;;;5089017;28;20448;-89
2022/02/24 10:59:55;;;;;;;7.30;4.30;;;14.80;71.00;;;;;;5089736;28;20429;-88
2022/02/24 11:02:22;;;;;;;7.40;3.80;;;14.80;70.00;;;;;;5089364;28;20571;-88
2022/02/24 11:04:49;;;;;;;5.93;3.73;;;14.80;67.90;;;;;;5080214;28;20494;-86
2022/02/24 11:07:16;;;;;;;11.33;4.70;;;14.90;69.10;;;;;;5092716;28;20461;-86
2022/02/24 11:09:44;;;;;;;4.77;4.27;;;14.90;69.00;;;;;;5090439;28;20428;-87
2022/02/24 11:12:13;;;;;;;6.67;4.53;;;14.90;68.50;;;;;;5068969;28;20444;-89
2022/02/24 11:14:40;;;;;;;8.53;5.47;;;14.90;69.10;;;;;;5074087;28;20977;-88
2022/02/24 11:17:10;;;;;;;8.60;5.67;;;14.90;69.20;;;;;;5073127;28;20432;-87
2022/02/24 11:19:38;;;;;;;12.77;5.50;;;14.70;68.80;;;;;;5089681;28;20413;-88
2022/02/24 11:22:06;;;;;;;10.17;5.30;;;14.50;67.80;;;;;;5082256;28;20484;-88
2022/02/24 11:24:31;;;;;;;15.70;9.97;;;14.30;68.50;;;;;;5088414;28;20498;-92
2022/02/24 11:27:06;;;;;;;7.90;4.90;;;14.20;68.20;;;;;;5080024;28;20432;-88
2022/02/24 11:29:38;;;;;;;4.73;3.60;;;14.00;68.00;;;;;;5070689;28;20436;-88
2022/02/24 11:32:10;;;;;;;5.00;3.93;;;14.00;66.50;;;;;;5087968;28;20479;-88
2022/02/24 11:34:58;;;;;;;6.00;4.27;;;13.90;67.40;;;;;;5089593;28;20415;-88
2022/02/24 11:37:39;;;;;;;6.13;4.27;;;13.90;68.20;;;;;;5086993;28;20947;-88
2022/02/24 11:40:04;;;;;;;8.83;5.00;;;14.00;69.00;;;;;;5095989;28;20428;-88
2022/02/24 11:42:33;;;;;;;8.90;5.50;;;14.10;69.60;;;;;;5077979;28;20853;-88
2022/02/24 11:44:59;;;;;;;9.43;5.63;;;14.10;68.90;;;;;;5073953;28;20435;-92
2022/02/24 11:47:26;;;;;;;8.30;5.27;;;14.10;69.00;;;;;;5079772;28;20461;-93
2022/02/24 11:49:57;;;;;;;7.30;5.60;;;13.90;69.00;;;;;;5076545;28;20427;-91
2022/02/24 11:52:31;;;;;;;9.47;5.20;;;13.80;69.30;;;;;;5093109;28;20517;-91
2022/02/24 11:54:59;;;;;;;6.40;4.23;;;13.90;68.10;;;;;;5075026;28;20436;-91
2022/02/24 11:57:36;;;;;;;10.40;6.47;;;13.90;69.90;;;;;;5075449;28;20965;-92
2022/02/24 12:00:22;;;;;;;9.80;5.97;;;14.00;69.40;;;;;;5076110;28;20540;-91
2022/02/24 12:02:49;;;;;;;7.27;5.50;;;13.90;68.10;;;;;;5072131;28;20472;-92
2022/02/24 12:05:25;;;;;;;10.23;5.60;;;13.90;68.50;;;;;;5091781;28;20452;-92
2022/02/24 12:08:05;;;;;;;12.63;8.33;;;13.70;68.20;;;;;;5074762;28;20468;-88
2022/02/24 12:10:43;;;;;;;8.93;6.33;;;13.50;68.60;;;;;;5068631;28;21000;-89
2022/02/24 12:13:29;;;;;;;13.50;8.10;;;13.40;68.50;;;;;;5100171;27;20751;-93
2022/02/24 12:16:15;;;;;;;6.30;4.33;;;13.40;69.50;;;;;;5130619;27;20444;-88
2022/02/24 12:18:42;;;;;;;4.90;3.57;;;13.30;69.70;;;;;;5103667;28;20460;-92
2022/02/24 12:21:35;;;;;;;6.07;4.05;;;13.40;69.60;;;;;;5094142;28;20465;-92
2022/02/24 12:24:10;;;;;;;6.63;4.10;;;13.40;68.30;;;;;;5090334;28;20196;-93
2022/02/24 12:26:38;;;;;;;4.60;3.77;;;13.40;69.10;;;;;;5092961;28;20437;-92
2022/02/24 12:29:28;;;;;;;8.20;6.07;;;13.50;69.00;;;;;;5120267;27;20460;-93
2022/02/24 12:31:59;;;;;;;6.30;4.20;;;13.60;69.40;;;;;;5090577;28;20421;-92
2022/02/24 12:34:26;;;;;;;3.87;3.47;;;13.60;68.30;;;;;;5085484;28;20542;-92
2022/02/24 12:37:09;;;;;;;6.10;4.27;;;13.60;68.10;;;;;;5119388;27;20487;-93
2022/02/24 12:39:37;;;;;;;5.60;4.27;;;13.70;67.60;;;;;;5085900;28;20405;-93
2022/02/24 12:42:04;;;;;;;8.00;5.93;;;13.60;67.00;;;;;;5093228;28;20978;-92